createdAt,value
2018-09-05T09:00:46.400Z,41.30
2018-09-05T09:24:14.102Z,43.70
2018-09-05T09:26:42.032Z,46.90
2018-09-05T09:29:09.924Z,37.83
2018-09-05T09:31:37.839Z,36.40
2018-09-05T09:34:05.821Z,40.90
2018-09-05T09:36:33.794Z,42.43
2018-09-05T09:39:01.682Z,44.33
2018-09-05T09:41:29.621Z,42.37
2018-09-05T09:43:57.588Z,44.50
2018-09-05T09:46:25.704Z,44.17
2018-09-05T09:48:53.991Z,44.23
2018-09-05T09:51:22.407Z,43.13
2018-09-05T09:53:51.063Z,40.20
2018-09-05T09:56:19.040Z,42.93
2018-09-05T09:58:46.990Z,41.13
2018-09-05T10:01:20.314Z,42.37
2018-09-05T10:03:53.754Z,43.13
2018-09-05T10:06:26.301Z,46.27
2018-09-05T10:08:59.889Z,36.20
2018-09-05T10:11:33.298Z,45.97
2018-09-05T10:14:06.874Z,38.73
2018-09-05T10:17:41.397Z,45.07
2018-09-05T10:20:09.312Z,29.57
2018-09-05T10:22:37.304Z,39.00
2018-09-05T10:25:05.235Z,37.57
2018-09-05T10:27:33.226Z,52.73
2018-09-05T10:30:01.153Z,45.80
2018-09-05T10:32:29.069Z,39.70
2018-09-05T10:34:57.074Z,39.70
2018-09-05T10:37:25.191Z,43.60
2018-09-05T10:39:53.213Z,36.20
2018-09-05T10:42:21.170Z,36.70
2018-09-05T10:44:49.116Z,43.33
2018-09-05T10:47:16.996Z,37.60
2018-09-05T10:49:44.901Z,36.73
2018-09-05T10:52:12.796Z,37.83
2018-09-05T10:54:40.734Z,37.73
2018-09-05T10:57:08.685Z,33.63
2018-09-05T10:59:36.552Z,35.80
2018-09-05T11:02:04.447Z,41.20
2018-09-05T11:04:32.385Z,36.83
2018-09-05T11:07:00.244Z,37.30
2018-09-05T11:09:28.157Z,38.80
2018-09-05T11:11:56.082Z,32.07
2018-09-05T11:14:24.041Z,39.50
2018-09-05T11:16:51.893Z,38.00
2018-09-05T11:19:19.910Z,36.73
2018-09-05T11:21:47.830Z,33.07
2018-09-05T11:24:15.770Z,36.93
2018-09-05T11:26:43.645Z,40.53
2018-09-05T11:29:11.651Z,36.70
2018-09-05T11:31:39.481Z,39.00
2018-09-05T11:34:07.390Z,34.27
2018-09-05T11:36:35.300Z,36.57
2018-09-05T11:39:04.466Z,37.63
2018-09-05T11:41:32.389Z,41.80
2018-09-05T11:44:00.337Z,36.27
2018-09-05T11:46:28.241Z,38.20
2018-09-05T11:48:56.177Z,37.07
2018-09-05T11:51:24.048Z,36.07
2018-09-05T11:53:52.009Z,37.40
2018-09-05T11:56:19.904Z,35.40
2018-09-05T11:58:47.933Z,34.50
2018-09-05T12:01:15.848Z,34.40
2018-09-05T12:03:43.802Z,30.67
2018-09-05T12:06:11.680Z,33.83
2018-09-05T12:08:39.583Z,33.97
2018-09-05T12:11:07.528Z,34.60
2018-09-05T12:13:35.416Z,33.87
2018-09-05T12:16:03.377Z,33.33
2018-09-05T12:18:31.291Z,36.53
2018-09-05T12:20:59.227Z,35.47
2018-09-05T12:23:27.100Z,35.57
2018-09-05T12:25:55.102Z,30.37
2018-09-05T12:28:23.008Z,33.13
2018-09-05T12:30:50.937Z,32.50
2018-09-05T12:33:18.867Z,33.23
2018-09-05T12:35:46.792Z,30.37
2018-09-05T12:38:14.730Z,32.30
2018-09-05T12:40:42.592Z,28.50
2018-09-05T12:43:10.517Z,29.77
2018-09-05T12:45:38.436Z,28.20
2018-09-05T12:48:06.322Z,31.47
2018-09-05T12:50:34.233Z,28.83
2018-09-05T12:53:02.153Z,27.70
2018-09-05T12:55:30.074Z,24.53
2018-09-05T12:57:57.933Z,25.83
2018-09-05T13:00:26.014Z,22.57
2018-09-05T13:02:53.889Z,28.60
2018-09-05T13:05:21.845Z,27.50
2018-09-05T13:07:49.727Z,26.00
2018-09-05T13:10:17.645Z,28.07
2018-09-05T13:12:45.575Z,25.30
2018-09-05T13:15:13.497Z,27.20
2018-09-05T13:17:41.383Z,27.53
2018-09-05T13:20:09.322Z,29.20
2018-09-05T13:22:37.268Z,28.73
2018-09-05T13:25:05.200Z,30.47
2018-09-05T13:27:33.099Z,27.77
2018-09-05T13:30:00.990Z,27.53
2018-09-05T13:32:28.907Z,30.80
2018-09-05T13:34:56.768Z,30.93
2018-09-05T13:37:25.241Z,24.87
2018-09-05T13:39:53.273Z,25.47
2018-09-05T13:42:21.231Z,24.33
2018-09-05T13:44:49.127Z,29.30
2018-09-05T13:47:17.099Z,25.67
2018-09-05T13:49:45.072Z,27.67
2018-09-05T13:52:16.555Z,30.17
2018-09-05T13:54:44.637Z,25.93
2018-09-05T13:57:12.517Z,24.90
2018-09-05T13:59:40.403Z,27.43
2018-09-05T14:02:08.322Z,21.20
2018-09-05T14:04:36.258Z,23.10
2018-09-05T14:07:04.250Z,24.53
2018-09-05T14:09:32.245Z,24.67
2018-09-05T14:12:00.150Z,21.90
2018-09-05T14:14:28.200Z,25.43
2018-09-05T14:16:56.160Z,23.13
2018-09-05T14:19:24.094Z,22.80
2018-09-05T14:21:52.003Z,24.77
2018-09-05T14:24:20.021Z,23.30
2018-09-05T14:26:47.932Z,26.07
2018-09-05T14:29:15.841Z,25.57
2018-09-05T14:31:43.754Z,25.93
2018-09-05T14:34:11.668Z,25.57
2018-09-05T14:36:39.729Z,23.70
2018-09-05T14:39:09.673Z,21.50
2018-09-05T14:41:37.546Z,24.17
2018-09-05T14:44:05.629Z,24.10
2018-09-05T14:46:33.532Z,21.37
2018-09-05T14:49:01.449Z,20.57
2018-09-05T14:51:29.326Z,18.13
2018-09-05T14:53:57.398Z,22.93
2018-09-05T14:56:25.358Z,21.53
2018-09-05T14:58:53.275Z,25.57
2018-09-05T15:01:21.197Z,22.03
2018-09-05T15:03:49.197Z,24.43
2018-09-05T15:06:17.219Z,23.43
2018-09-05T15:08:45.076Z,21.90
2018-09-05T15:11:12.982Z,21.50
2018-09-05T15:13:41.045Z,22.10
2018-09-05T15:16:08.942Z,20.43
2018-09-05T15:18:37.368Z,22.37
2018-09-05T15:21:05.633Z,19.70
2018-09-05T15:23:33.665Z,20.63
2018-09-05T15:26:01.669Z,18.80
2018-09-05T15:28:29.552Z,20.90
2018-09-05T15:30:57.517Z,19.63
2018-09-05T15:33:25.448Z,23.33
2018-09-05T15:35:53.367Z,23.73
2018-09-05T15:38:21.462Z,19.20
2018-09-05T15:40:49.555Z,20.63
2018-09-05T15:43:17.568Z,27.43
2018-09-05T15:45:45.422Z,23.40
2018-09-05T15:48:13.569Z,24.97
2018-09-05T15:50:41.523Z,28.60
2018-09-05T15:53:09.441Z,25.97
2018-09-05T15:55:37.380Z,24.63
2018-09-05T15:58:05.310Z,23.33
2018-09-05T16:00:33.237Z,24.17
2018-09-05T16:03:01.117Z,25.00
2018-09-05T16:05:29.049Z,24.10
2018-09-05T16:07:56.990Z,24.10
2018-09-05T16:10:24.904Z,25.03
2018-09-05T16:12:52.798Z,23.90
2018-09-05T16:15:20.732Z,21.57
2018-09-05T16:17:48.641Z,25.27
2018-09-05T16:20:16.537Z,23.53
2018-09-05T16:22:44.445Z,21.37
2018-09-05T16:25:12.360Z,22.17
2018-09-05T16:27:40.263Z,23.83
2018-09-05T16:30:08.248Z,22.83
2018-09-05T16:32:36.167Z,23.60
2018-09-05T16:35:04.223Z,23.20
2018-09-05T16:37:32.086Z,24.70
2018-09-05T16:39:59.992Z,22.27
2018-09-05T16:42:28.433Z,19.37
2018-09-05T16:44:56.895Z,23.30
2018-09-05T16:47:26.142Z,22.10
2018-09-05T16:49:54.427Z,22.30
2018-09-05T16:52:26.832Z,22.13
2018-09-05T16:54:54.787Z,22.87
2018-09-05T16:57:22.721Z,19.93
2018-09-05T16:59:50.741Z,22.67
2018-09-05T17:02:18.650Z,22.37
2018-09-05T17:04:46.599Z,22.03
2018-09-05T17:07:14.579Z,20.63
2018-09-05T17:09:42.548Z,21.30
2018-09-05T17:12:10.560Z,21.77
2018-09-05T17:14:38.472Z,22.33
2018-09-05T17:17:06.486Z,22.70
2018-09-05T17:19:34.426Z,22.37
2018-09-05T17:22:02.152Z,20.57
2018-09-05T17:24:30.092Z,25.90
2018-09-05T17:26:58.143Z,29.00
2018-09-05T17:29:25.936Z,22.57
2018-09-05T17:31:53.903Z,22.37
2018-09-05T17:34:21.896Z,23.10
2018-09-05T17:36:49.772Z,23.90
2018-09-05T17:39:17.704Z,22.60
2018-09-05T17:41:45.649Z,22.30
2018-09-05T17:44:13.593Z,21.43
2018-09-05T17:46:41.442Z,22.13
2018-09-05T17:49:09.829Z,23.20
2018-09-05T17:51:37.789Z,23.37
2018-09-05T17:54:06.153Z,22.90
2018-09-05T17:56:34.084Z,24.23
2018-09-05T17:59:02.007Z,22.50
2018-09-05T18:01:30.075Z,23.47
2018-09-05T18:03:57.957Z,23.73
2018-09-05T18:06:25.875Z,23.90
2018-09-05T18:08:53.809Z,24.10
2018-09-05T18:11:22.051Z,25.43
2018-09-05T18:13:49.994Z,26.00
2018-09-05T18:16:17.924Z,24.77
2018-09-05T18:18:46.024Z,24.53
2018-09-05T18:21:13.957Z,24.63
2018-09-05T18:23:41.923Z,25.33
2018-09-05T18:26:09.901Z,24.57
2018-09-05T18:28:37.866Z,26.63
2018-09-05T18:31:05.902Z,26.30
2018-09-05T18:33:34.486Z,26.60
2018-09-05T18:36:02.471Z,27.27
2018-09-05T18:38:30.481Z,26.30
2018-09-05T18:40:58.817Z,26.90
2018-09-05T18:43:26.842Z,35.30
2018-09-05T18:45:54.891Z,27.47
2018-09-05T18:48:22.848Z,25.27
2018-09-05T18:50:50.809Z,22.00
2018-09-05T18:53:18.729Z,23.87
2018-09-05T18:55:46.813Z,23.07
2018-09-05T18:58:14.802Z,24.60
2018-09-05T19:00:42.913Z,24.77
2018-09-05T19:03:10.800Z,25.43
2018-09-05T19:05:38.797Z,25.20
2018-09-05T19:08:07.111Z,24.80
2018-09-05T19:10:35.085Z,25.37
2018-09-05T19:13:03.024Z,26.53
2018-09-05T19:15:30.943Z,31.10
2018-09-05T19:17:58.871Z,30.40
2018-09-05T19:20:26.888Z,25.00
2018-09-05T19:22:54.892Z,23.90
2018-09-05T19:25:22.842Z,28.17
2018-09-05T19:27:50.720Z,25.23
2018-09-05T19:30:18.633Z,27.40
2018-09-05T19:32:46.508Z,27.27
2018-09-05T19:35:14.481Z,28.57
2018-09-05T19:37:42.448Z,27.63
2018-09-05T19:40:10.401Z,24.60
2018-09-05T19:42:38.259Z,26.90
2018-09-05T19:45:06.900Z,27.33
2018-09-05T19:47:34.810Z,24.90
2018-09-05T19:50:02.954Z,26.90
2018-09-05T19:52:30.873Z,23.20
2018-09-05T19:54:58.785Z,22.17
2018-09-05T19:57:26.725Z,25.83
2018-09-05T19:59:54.666Z,24.37
2018-09-05T20:02:22.625Z,26.73
2018-09-05T20:04:50.570Z,25.40
2018-09-05T20:07:18.597Z,29.10
2018-09-05T20:09:46.556Z,28.17
2018-09-05T20:12:14.456Z,28.87
2018-09-05T20:14:42.432Z,27.57
2018-09-05T20:17:10.381Z,29.17
2018-09-05T20:19:38.757Z,26.23
2018-09-05T20:22:09.165Z,25.47
2018-09-05T20:24:37.255Z,27.37
2018-09-05T20:27:05.610Z,26.17
2018-09-05T20:29:33.567Z,29.10
2018-09-05T20:32:01.541Z,27.40
2018-09-05T20:34:29.504Z,27.27
2018-09-05T20:36:58.067Z,30.53
2018-09-05T20:39:25.970Z,24.60
2018-09-05T20:41:53.930Z,27.13
2018-09-05T20:44:21.819Z,27.00
2018-09-05T20:46:49.776Z,25.17
2018-09-05T20:49:17.725Z,27.73
2018-09-05T20:51:45.746Z,26.13
2018-09-05T20:54:13.673Z,24.10
2018-09-05T20:56:41.580Z,30.10
2018-09-05T20:59:09.589Z,27.80
2018-09-05T21:01:37.486Z,28.97
2018-09-05T21:04:05.453Z,26.50
2018-09-05T21:06:33.658Z,28.47
2018-09-05T21:09:01.605Z,28.80
2018-09-05T21:11:29.581Z,29.03
2018-09-05T21:13:57.517Z,27.37
2018-09-05T21:16:25.522Z,25.70
2018-09-05T21:18:53.518Z,27.80
2018-09-05T21:21:21.476Z,30.70
2018-09-05T21:23:49.445Z,28.33
2018-09-05T21:26:17.347Z,27.73
2018-09-05T21:28:45.383Z,27.67
2018-09-05T21:31:13.392Z,30.40
2018-09-05T21:36:15.953Z,26.13
2018-09-05T21:38:43.997Z,27.80
2018-09-05T21:41:12.040Z,28.97
2018-09-05T21:43:40.078Z,30.07
2018-09-05T21:46:08.048Z,30.93
2018-09-05T21:48:36.061Z,26.83
2018-09-05T21:51:04.085Z,29.40
2018-09-05T21:53:32.114Z,25.83
2018-09-05T21:56:00.037Z,25.27
2018-09-05T21:58:28.056Z,24.33
2018-09-05T22:00:56.106Z,23.03
2018-09-05T22:03:25.149Z,24.40
2018-09-05T22:05:53.193Z,25.23
2018-09-05T22:08:22.154Z,24.47
2018-09-05T22:10:50.083Z,25.13
2018-09-05T22:13:18.201Z,24.07
2018-09-05T22:15:47.141Z,25.13
2018-09-05T22:18:16.101Z,25.30
2018-09-05T22:20:44.153Z,21.33
2018-09-05T22:23:12.104Z,21.23
2018-09-05T22:25:40.157Z,20.70
2018-09-05T22:28:08.135Z,20.10
2018-09-05T22:30:36.125Z,21.50
2018-09-05T22:33:04.065Z,19.03
2018-09-05T22:35:32.081Z,22.80
2018-09-05T22:38:00.099Z,20.23
2018-09-05T22:40:30.342Z,25.00
2018-09-05T22:43:10.062Z,18.23
2018-09-05T22:45:49.066Z,19.90
2018-09-05T22:49:58.490Z,26.00
2018-09-05T22:54:45.222Z,21.00
2018-09-05T22:58:24.262Z,23.77
2018-09-05T23:01:06.959Z,20.97
2018-09-05T23:03:54.158Z,21.00
2018-09-05T23:06:33.166Z,22.80
2018-09-05T23:09:01.107Z,24.83
2018-09-05T23:11:53.990Z,23.70
2018-09-05T23:14:33.171Z,21.87
2018-09-05T23:19:25.487Z,23.80
2018-09-05T23:21:53.479Z,21.60
2018-09-05T23:24:21.446Z,25.70
2018-09-05T23:26:49.552Z,23.83
2018-09-05T23:29:17.542Z,22.90
2018-09-05T23:31:45.522Z,20.70
2018-09-05T23:34:13.564Z,21.43
2018-09-05T23:36:41.523Z,20.13
2018-09-05T23:39:09.494Z,18.13
2018-09-05T23:41:37.519Z,19.33
2018-09-05T23:44:05.677Z,20.33
2018-09-05T23:46:33.706Z,20.40
2018-09-05T23:49:01.823Z,20.40
2018-09-05T23:51:29.775Z,19.60
2018-09-05T23:54:04.238Z,23.37
2018-09-05T23:56:32.423Z,23.23
2018-09-05T23:59:04.866Z,22.87
